createdAt,value
2017-12-06T00:02:11.099Z,57.40
2017-12-06T00:07:13.652Z,57.40
2017-12-06T00:12:22.451Z,57.40
2017-12-06T00:17:25.971Z,57.40
2017-12-06T00:22:29.365Z,57.70
2017-12-06T00:27:32.331Z,57.70
2017-12-06T00:32:34.945Z,57.70
2017-12-06T00:37:37.549Z,57.70
2017-12-06T00:42:40.903Z,57.80
2017-12-06T00:47:43.519Z,57.70
2017-12-06T00:52:46.114Z,57.80
2017-12-06T00:57:48.730Z,57.80
2017-12-06T01:02:51.353Z,57.80
2017-12-06T01:07:53.945Z,58.00
2017-12-06T01:12:56.517Z,57.90
2017-12-06T01:17:59.839Z,58.00
2017-12-06T01:23:03.173Z,57.70
2017-12-06T01:28:05.738Z,57.80
2017-12-06T01:33:08.327Z,57.50
2017-12-06T01:38:10.940Z,57.50
2017-12-06T01:43:14.301Z,57.60
2017-12-06T01:48:16.930Z,57.60
2017-12-06T01:53:19.491Z,57.70
2017-12-06T01:58:22.131Z,57.80
2017-12-06T02:03:25.447Z,57.90
2017-12-06T02:08:28.798Z,58.00
2017-12-06T02:13:31.357Z,58.00
2017-12-06T02:18:34.698Z,58.10
2017-12-06T02:23:37.326Z,58.00
2017-12-06T02:28:40.730Z,58.80
2017-12-06T02:33:43.310Z,58.80
2017-12-06T02:38:45.867Z,58.20
2017-12-06T02:44:00.186Z,58.30
2017-12-06T02:49:03.027Z,58.30
2017-12-06T02:54:05.577Z,58.30
2017-12-06T02:59:08.178Z,58.30
2017-12-06T03:04:10.730Z,58.30
2017-12-06T03:09:13.288Z,58.30
2017-12-06T03:14:15.846Z,58.40
2017-12-06T03:19:19.034Z,58.50
2017-12-06T03:24:21.653Z,58.50
2017-12-06T03:29:24.756Z,58.60
2017-12-06T03:34:27.319Z,58.60
2017-12-06T03:39:29.922Z,58.70
2017-12-06T03:44:32.508Z,58.90
2017-12-06T03:49:35.918Z,59.00
2017-12-06T03:54:39.234Z,59.00
2017-12-06T03:59:41.890Z,58.90
2017-12-06T04:04:44.508Z,58.90
2017-12-06T04:09:47.123Z,59.00
2017-12-06T04:14:50.496Z,59.10
2017-12-06T04:19:53.065Z,59.10
2017-12-06T04:24:55.803Z,59.20
2017-12-06T04:29:58.420Z,59.30
2017-12-06T04:35:01.011Z,59.30
2017-12-06T04:40:03.604Z,59.50
2017-12-06T04:45:06.229Z,59.50
2017-12-06T04:50:08.794Z,59.60
2017-12-06T04:55:11.366Z,59.60
2017-12-06T05:00:13.919Z,59.70
2017-12-06T05:05:16.468Z,59.60
2017-12-06T05:10:19.039Z,59.60
2017-12-06T05:15:21.594Z,59.60
2017-12-06T05:20:24.220Z,59.70
2017-12-06T05:25:26.835Z,59.80
2017-12-06T05:30:29.427Z,59.80
2017-12-06T05:35:32.004Z,59.80
2017-12-06T05:40:34.693Z,59.90
2017-12-06T05:45:37.275Z,59.80
2017-12-06T05:50:39.841Z,59.90
2017-12-06T05:55:42.403Z,59.90
2017-12-06T06:00:44.979Z,59.90
2017-12-06T06:05:47.540Z,59.90
2017-12-06T06:10:50.184Z,60.00
2017-12-06T06:15:53.696Z,60.00
2017-12-06T06:20:56.347Z,60.00
2017-12-06T06:25:59.738Z,60.00
2017-12-06T06:31:02.332Z,59.90
2017-12-06T06:36:05.871Z,60.00
2017-12-06T06:41:09.238Z,60.00
2017-12-06T06:46:11.812Z,60.00
2017-12-06T06:51:14.443Z,60.00
2017-12-06T06:56:17.026Z,60.00
2017-12-06T07:01:19.626Z,60.00
2017-12-06T07:06:22.308Z,60.00
2017-12-06T07:11:24.934Z,60.20
2017-12-06T07:16:27.553Z,60.10
2017-12-06T07:21:30.916Z,60.20
2017-12-06T07:26:33.483Z,60.10
2017-12-06T07:31:36.066Z,60.10
2017-12-06T07:36:38.696Z,60.10
2017-12-06T07:41:41.304Z,60.10
2017-12-06T07:46:43.893Z,60.10
2017-12-06T07:51:46.507Z,60.10
2017-12-06T07:56:49.118Z,60.20
2017-12-06T08:01:51.727Z,60.10
2017-12-06T08:06:54.447Z,60.10
2017-12-06T08:11:57.280Z,60.20
2017-12-06T08:16:59.958Z,60.10
2017-12-06T08:22:02.561Z,60.10
2017-12-06T08:27:05.201Z,60.20
2017-12-06T08:32:08.539Z,60.30
2017-12-06T08:37:11.107Z,60.10
2017-12-06T08:42:13.749Z,60.30
2017-12-06T08:47:16.311Z,60.30
2017-12-06T08:52:18.918Z,60.30
2017-12-06T08:57:21.507Z,60.20
2017-12-06T09:02:24.091Z,60.30
2017-12-06T09:07:26.662Z,60.20
2017-12-06T09:12:29.227Z,60.80
2017-12-06T09:17:31.821Z,60.40
2017-12-06T09:22:34.415Z,60.20
2017-12-06T09:27:37.013Z,60.30
2017-12-06T09:32:39.616Z,60.30
2017-12-06T09:37:42.202Z,60.30
2017-12-06T09:42:44.778Z,60.40
2017-12-06T09:47:47.335Z,60.10
2017-12-06T09:52:49.951Z,59.90
2017-12-06T09:57:52.555Z,59.60
2017-12-06T10:02:55.144Z,59.40
2017-12-06T10:07:57.769Z,59.30
2017-12-06T10:13:00.392Z,59.20
2017-12-06T10:18:03.050Z,59.10
2017-12-06T10:23:06.340Z,58.90
2017-12-06T10:28:08.912Z,58.80
2017-12-06T10:33:11.522Z,58.80
2017-12-06T10:38:14.122Z,58.70
2017-12-06T10:43:16.719Z,58.60
2017-12-06T10:48:19.328Z,58.50
2017-12-06T10:53:21.945Z,58.40
2017-12-06T10:58:24.563Z,58.40
2017-12-06T11:03:27.333Z,58.30
2017-12-06T11:08:29.912Z,58.20
2017-12-06T11:13:32.551Z,58.20
2017-12-06T11:18:35.153Z,58.20
2017-12-06T11:23:38.262Z,58.20
2017-12-06T11:28:40.908Z,58.20
2017-12-06T11:33:43.491Z,58.30
2017-12-06T11:38:46.088Z,58.40
2017-12-06T11:43:49.479Z,59.10
2017-12-06T11:48:52.057Z,58.80
2017-12-06T11:53:54.750Z,59.60
2017-12-06T11:58:57.336Z,59.80
2017-12-06T12:04:00.046Z,60.20
2017-12-06T12:09:02.684Z,60.60
2017-12-06T12:14:05.263Z,60.70
2017-12-06T12:19:08.616Z,61.40
2017-12-06T12:24:11.410Z,61.30
2017-12-06T12:29:14.056Z,61.70
2017-12-06T12:34:16.764Z,62.60
2017-12-06T12:39:20.698Z,63.50
2017-12-06T12:44:23.256Z,63.50
2017-12-06T12:49:26.700Z,63.90
2017-12-06T12:54:29.553Z,64.70
2017-12-06T12:59:32.161Z,64.70
2017-12-06T13:04:34.937Z,65.00
2017-12-06T13:09:37.705Z,64.60
2017-12-06T13:14:40.439Z,65.20
2017-12-06T13:19:43.429Z,65.10
2017-12-06T13:24:46.693Z,65.50
2017-12-06T13:29:49.339Z,65.50
2017-12-06T13:34:51.952Z,65.50
2017-12-06T13:39:54.717Z,65.50
2017-12-06T13:44:57.333Z,65.70
2017-12-06T13:49:59.921Z,65.70
2017-12-06T13:55:02.604Z,65.90
2017-12-06T14:00:05.272Z,66.00
2017-12-06T14:05:07.900Z,66.00
2017-12-06T14:10:10.471Z,65.90
2017-12-06T14:15:13.901Z,65.80
2017-12-06T14:20:16.529Z,65.80
2017-12-06T14:25:19.102Z,65.80
2017-12-06T14:30:21.678Z,65.70
2017-12-06T14:35:25.084Z,65.70
2017-12-06T14:40:28.481Z,65.50
2017-12-06T14:45:31.072Z,65.50
2017-12-06T14:50:33.683Z,65.40
2017-12-06T14:55:36.278Z,65.20
2017-12-06T15:00:39.056Z,65.20
2017-12-06T15:05:41.634Z,65.50
2017-12-06T15:10:44.285Z,66.30
2017-12-06T15:15:47.145Z,67.40
2017-12-06T15:20:49.806Z,68.10
2017-12-06T15:25:52.428Z,68.60
2017-12-06T15:30:55.008Z,69.10
2017-12-06T15:35:57.596Z,69.70
2017-12-06T15:41:01.030Z,70.10
2017-12-06T15:46:03.614Z,70.60
2017-12-06T15:51:06.208Z,70.60
2017-12-06T15:56:08.879Z,70.80
2017-12-06T16:01:12.621Z,70.90
2017-12-06T16:06:15.293Z,71.30
2017-12-06T16:11:18.923Z,71.70
2017-12-06T16:16:21.608Z,71.60
2017-12-06T16:21:24.244Z,71.30
2017-12-06T16:26:26.875Z,71.60
2017-12-06T16:31:29.514Z,71.40
2017-12-06T16:42:11.674Z,71.60
2017-12-06T16:47:14.250Z,71.80
2017-12-06T16:52:16.833Z,72.00
2017-12-06T16:57:19.444Z,72.00
2017-12-06T17:02:22.288Z,72.00
2017-12-06T17:07:24.865Z,71.40
2017-12-06T17:12:27.616Z,71.40
2017-12-06T17:17:33.172Z,71.40
2017-12-06T17:22:35.833Z,71.40
2017-12-06T17:27:38.592Z,71.30
2017-12-06T17:32:41.926Z,71.10
2017-12-06T17:37:44.607Z,71.00
2017-12-06T17:42:47.192Z,70.80
2017-12-06T17:47:50.577Z,70.60
2017-12-06T17:52:53.335Z,70.60
2017-12-06T17:57:56.591Z,70.80
2017-12-06T18:02:59.212Z,70.70
2017-12-06T18:08:01.978Z,70.80
2017-12-06T18:13:04.675Z,70.40
2017-12-06T18:18:07.269Z,70.30
2017-12-06T18:23:10.388Z,70.20
2017-12-06T18:28:13.074Z,70.00
2017-12-06T18:33:16.151Z,70.10
2017-12-06T18:38:18.771Z,70.10
2017-12-06T18:43:21.389Z,70.00
2017-12-06T18:48:27.134Z,69.90
2017-12-06T18:53:29.790Z,69.90
2017-12-06T18:58:32.393Z,69.80
2017-12-06T19:03:35.020Z,69.60
2017-12-06T19:08:37.627Z,69.50
2017-12-06T19:13:41.017Z,69.50
2017-12-06T19:18:44.598Z,69.40
2017-12-06T19:23:47.286Z,69.30
2017-12-06T19:28:49.974Z,69.20
2017-12-06T19:33:53.358Z,69.10
2017-12-06T19:38:55.960Z,69.00
2017-12-06T19:43:58.895Z,68.70
2017-12-06T19:49:01.686Z,68.40
2017-12-06T19:54:04.456Z,68.20
2017-12-06T19:59:07.098Z,68.00
2017-12-06T20:04:09.684Z,67.70
2017-12-06T20:09:12.323Z,67.70
2017-12-06T20:14:14.969Z,67.50
2017-12-06T20:19:18.564Z,67.30
2017-12-06T20:24:21.135Z,67.20
2017-12-06T20:29:23.784Z,67.00
2017-12-06T20:34:26.385Z,66.90
2017-12-06T20:39:28.966Z,66.90
2017-12-06T20:44:31.592Z,66.70
2017-12-06T20:49:34.166Z,66.50
2017-12-06T20:54:37.741Z,66.30
2017-12-06T20:59:40.325Z,66.30
2017-12-06T21:04:42.903Z,66.10
2017-12-06T21:09:45.510Z,66.00
2017-12-06T21:14:48.111Z,65.80
2017-12-06T21:19:50.781Z,65.70
2017-12-06T21:24:53.408Z,65.60
2017-12-06T21:29:56.020Z,65.40
2017-12-06T21:34:58.635Z,65.30
2017-12-06T21:40:02.066Z,65.10
2017-12-06T21:45:05.412Z,65.00
2017-12-06T21:50:08.006Z,65.00
2017-12-06T21:55:10.735Z,64.90
2017-12-06T22:00:14.103Z,65.00
2017-12-06T22:05:16.799Z,64.90
2017-12-06T22:10:19.399Z,65.00
2017-12-06T22:15:21.987Z,65.10
2017-12-06T22:20:24.678Z,65.20
2017-12-06T22:25:27.241Z,65.30
2017-12-06T22:30:29.832Z,65.20
2017-12-06T22:35:32.398Z,65.20
2017-12-06T22:40:34.959Z,65.20
2017-12-06T22:45:37.536Z,65.10
2017-12-06T22:50:40.893Z,56.50
2017-12-06T22:55:43.483Z,56.50
2017-12-06T23:00:46.060Z,56.20
2017-12-06T23:05:48.659Z,56.30
2017-12-06T23:10:51.828Z,56.70
2017-12-06T23:15:54.435Z,56.90
2017-12-06T23:20:57.037Z,57.20
2017-12-06T23:25:59.664Z,57.50
2017-12-06T23:31:02.434Z,57.80
2017-12-06T23:36:05.543Z,57.90
2017-12-06T23:41:08.151Z,58.20
2017-12-06T23:46:10.730Z,58.40
2017-12-06T23:51:14.110Z,59.10
2017-12-06T23:56:16.734Z,59.10
